Time;durP1;ratioP1;P1;durP2;ratioP2;P2;SDS_P1;SDS_P2;PMS_P1;PMS_P2;Temp;Humidity;BMP_temperature;BMP_pressure;BME280_temperature;BME280_humidity;BME280_pressure;Samples;Min_cycle;Max_cycle;Signal;HPM_P1;HPM_P2
2020/12/29 00:01:38;;;;;;;7.85;2.22;;;;;;;;;;5089963;28;20043;-71
2020/12/29 00:04:05;;;;;;;5.30;2.50;;;;;;;;;;5102275;28;20020;-68
2020/12/29 00:06:31;;;;;;;3.90;2.00;;;;;;;;;;5098096;28;20450;-69
2020/12/29 00:08:58;;;;;;;4.47;2.17;;;;;;;;;;5101970;28;20032;-67
2020/12/29 00:11:24;;;;;;;5.40;2.42;;;;;;;;;;5110384;28;20045;-75
2020/12/29 00:13:50;;;;;;;4.53;2.33;;;;;;;;;;5104121;28;20042;-72
2020/12/29 00:16:16;;;;;;;7.05;2.30;;;;;;;;;;5085066;28;20027;-68
2020/12/29 00:18:42;;;;;;;4.20;2.10;;;;;;;;;;5100285;28;20108;-69
2020/12/29 00:21:15;;;;;;;7.82;2.92;;;;;;;;;;5105628;28;20367;-68
2020/12/29 00:23:41;;;;;;;5.88;2.63;;;;;;;;;;5110294;28;20020;-71
2020/12/29 00:26:07;;;;;;;4.85;2.13;;;;;;;;;;5107697;28;20055;-68
2020/12/29 00:28:33;;;;;;;6.10;2.45;;;;;;;;;;5103726;28;20020;-69
2020/12/29 00:30:59;;;;;;;6.65;2.67;;;;;;;;;;5101187;28;20043;-70
2020/12/29 00:33:25;;;;;;;4.47;2.40;;;;;;;;;;5103433;28;20023;-68
2020/12/29 00:35:51;;;;;;;5.07;2.55;;;;;;;;;;5100151;28;20113;-70
2020/12/29 00:38:17;;;;;;;6.00;2.50;;;;;;;;;;5078408;28;20035;-70
2020/12/29 00:40:43;;;;;;;4.75;2.50;;;;;;;;;;5099677;28;20042;-70
2020/12/29 00:43:10;;;;;;;6.53;2.63;;;;;;;;;;5094560;28;20016;-72
2020/12/29 00:45:36;;;;;;;5.72;2.20;;;;;;;;;;5104835;28;20024;-71
2020/12/29 00:48:02;;;;;;;4.05;2.15;;;;;;;;;;5105091;28;20022;-71
2020/12/29 00:50:28;;;;;;;6.70;2.42;;;;;;;;;;5108561;28;20039;-72
2020/12/29 00:52:54;;;;;;;4.32;2.00;;;;;;;;;;5111783;28;20050;-70
2020/12/29 00:55:20;;;;;;;5.78;2.47;;;;;;;;;;5095424;28;20031;-70
2020/12/29 00:57:46;;;;;;;4.68;2.25;;;;;;;;;;5107909;28;20019;-70
2020/12/29 01:00:12;;;;;;;4.55;2.13;;;;;;;;;;5089939;28;20384;-74
2020/12/29 01:02:38;;;;;;;4.40;2.20;;;;;;;;;;5096110;28;20034;-70
2020/12/29 01:05:04;;;;;;;5.75;2.10;;;;;;;;;;5107560;28;20027;-75
2020/12/29 01:07:30;;;;;;;4.10;2.13;;;;;;;;;;5105578;28;20062;-72
2020/12/29 01:09:56;;;;;;;5.57;2.40;;;;;;;;;;5103791;28;20099;-71
2020/12/29 01:12:22;;;;;;;6.53;2.38;;;;;;;;;;5110792;28;20478;-70
2020/12/29 01:14:48;;;;;;;4.80;2.35;;;;;;;;;;5100489;28;20031;-73
2020/12/29 01:17:14;;;;;;;3.88;2.13;;;;;;;;;;5084686;28;20559;-73
2020/12/29 01:19:40;;;;;;;5.65;2.17;;;;;;;;;;5086240;28;20031;-76
2020/12/29 01:22:06;;;;;;;6.78;2.33;;;;;;;;;;5080120;28;20483;-87
2020/12/29 01:24:32;;;;;;;3.88;1.88;;;;;;;;;;5087681;28;20024;-75
2020/12/29 01:26:58;;;;;;;5.32;2.30;;;;;;;;;;5092445;28;20027;-75
2020/12/29 01:29:24;;;;;;;5.25;2.50;;;;;;;;;;5088850;28;20020;-76
2020/12/29 01:31:50;;;;;;;5.20;2.60;;;;;;;;;;5089493;28;20387;-75
2020/12/29 01:34:17;;;;;;;4.85;2.40;;;;;;;;;;5088545;28;24071;-77
2020/12/29 01:36:43;;;;;;;5.43;2.35;;;;;;;;;;5087801;28;20027;-80
2020/12/29 01:39:09;;;;;;;7.07;1.70;;;;;;;;;;5092383;28;20043;-77
2020/12/29 01:41:35;;;;;;;4.95;2.15;;;;;;;;;;5093168;28;20034;-79
2020/12/29 01:44:15;;;;;;;4.85;2.25;;;;;;;;;;5097757;28;20388;-80
2020/12/29 01:46:43;;;;;;;10.43;2.65;;;;;;;;;;5081758;28;20023;-80
2020/12/29 01:49:09;;;;;;;4.53;2.20;;;;;;;;;;5081001;28;20025;-81
2020/12/29 01:51:35;;;;;;;6.03;2.60;;;;;;;;;;5090707;28;20446;-82
2020/12/29 01:54:01;;;;;;;5.68;2.70;;;;;;;;;;5088116;28;20110;-84
2020/12/29 01:56:28;;;;;;;4.47;2.53;;;;;;;;;;5074887;28;20032;-83
2020/12/29 01:59:14;;;;;;;5.38;2.45;;;;;;;;;;5076802;28;20388;-83
2020/12/29 02:02:01;;;;;;;6.82;2.40;;;;;;;;;;5065967;28;20033;-87
2020/12/29 02:14:14;;;;;;;;;;;;;;;;;;5089980;28;20119;-84
2020/12/29 02:24:31;;;;;;;4.93;2.40;;;;;;;;;;5013892;28;20065;-85
2020/12/29 02:41:35;;;;;;;4.28;2.10;;;;;;;;;;4938146;28;20675;-84
2020/12/29 02:44:43;;;;;;;5.70;2.28;;;;;;;;;;4948327;28;20156;-86
2020/12/29 02:47:50;;;;;;;4.40;2.05;;;;;;;;;;5036734;28;20114;-85
2020/12/29 02:50:59;;;;;;;5.07;1.88;;;;;;;;;;5022899;28;20200;-88
2020/12/29 02:54:04;;;;;;;5.90;1.75;;;;;;;;;;4945461;28;20598;-87
2020/12/29 02:57:28;;;;;;;4.63;1.77;;;;;;;;;;4945028;28;20563;-84
2020/12/29 03:00:34;;;;;;;6.40;1.98;;;;;;;;;;5024933;28;20147;-86
2020/12/29 03:03:46;;;;;;;5.15;1.80;;;;;;;;;;4965627;28;20142;-87
2020/12/29 03:07:13;;;;;;;3.65;1.60;;;;;;;;;;4958646;28;20551;-84
2020/12/29 03:10:20;;;;;;;4.35;1.63;;;;;;;;;;4970026;28;20657;-87
2020/12/29 03:12:46;;;;;;;3.75;1.70;;;;;;;;;;4952571;28;20222;-85
2020/12/29 03:15:32;;;;;;;6.78;1.60;;;;;;;;;;4956011;28;20215;-83
2020/12/29 03:18:22;;;;;;;3.63;1.73;;;;;;;;;;4955918;28;20575;-85
2020/12/29 03:21:09;;;;;;;4.93;1.48;;;;;;;;;;4961038;28;20201;-83
2020/12/29 03:23:35;;;;;;;4.18;1.60;;;;;;;;;;4971398;28;20088;-83
2020/12/29 03:26:01;;;;;;;4.00;1.52;;;;;;;;;;4957312;28;20046;-87
2020/12/29 03:28:27;;;;;;;4.05;1.35;;;;;;;;;;4964150;28;20121;-86
2020/12/29 03:30:53;;;;;;;4.50;1.60;;;;;;;;;;4952165;28;20100;-83
2020/12/29 03:33:19;;;;;;;3.70;1.55;;;;;;;;;;4956654;28;20606;-83
2020/12/29 03:35:45;;;;;;;3.88;1.40;;;;;;;;;;5036719;28;20434;-83
2020/12/29 03:38:11;;;;;;;3.08;1.38;;;;;;;;;;5027434;28;20029;-86
2020/12/29 03:40:37;;;;;;;2.55;1.20;;;;;;;;;;5032932;28;20427;-84
2020/12/29 03:43:03;;;;;;;4.07;1.45;;;;;;;;;;5035000;28;20487;-82
2020/12/29 03:45:30;;;;;;;5.85;1.80;;;;;;;;;;5069764;28;20028;-83
2020/12/29 03:47:56;;;;;;;5.25;1.30;;;;;;;;;;5064871;28;20027;-85
2020/12/29 03:50:22;;;;;;;3.83;1.30;;;;;;;;;;5070081;28;20016;-84
2020/12/29 03:52:48;;;;;;;3.28;1.45;;;;;;;;;;5070624;28;20036;-82
2020/12/29 03:55:14;;;;;;;3.75;1.10;;;;;;;;;;5072900;28;20048;-84
2020/12/29 03:57:40;;;;;;;2.63;1.02;;;;;;;;;;5075092;28;20021;-83
2020/12/29 04:00:06;;;;;;;3.33;1.20;;;;;;;;;;5058722;28;20120;-82
2020/12/29 04:02:32;;;;;;;2.95;1.20;;;;;;;;;;5074333;28;20036;-84
2020/12/29 04:04:59;;;;;;;3.63;1.15;;;;;;;;;;5062264;28;20070;-85
2020/12/29 04:07:25;;;;;;;2.60;1.27;;;;;;;;;;5075256;28;20482;-84
2020/12/29 04:09:51;;;;;;;3.10;1.20;;;;;;;;;;5069501;28;20498;-84
2020/12/29 04:12:17;;;;;;;2.72;1.05;;;;;;;;;;5055365;28;20456;-82
2020/12/29 04:14:43;;;;;;;5.07;1.20;;;;;;;;;;5073902;28;20171;-85
2020/12/29 04:17:09;;;;;;;2.35;1.13;;;;;;;;;;5070098;28;20028;-84
2020/12/29 04:19:35;;;;;;;3.00;1.20;;;;;;;;;;5068786;28;20396;-82
2020/12/29 04:22:01;;;;;;;3.05;1.23;;;;;;;;;;5069817;28;20060;-83
2020/12/29 04:24:27;;;;;;;2.60;1.00;;;;;;;;;;5089316;28;20063;-86
2020/12/29 04:26:53;;;;;;;2.08;1.05;;;;;;;;;;5057121;28;20020;-81
2020/12/29 04:29:19;;;;;;;2.03;0.90;;;;;;;;;;5078067;28;20046;-81
2020/12/29 04:31:47;;;;;;;3.00;1.17;;;;;;;;;;5077059;28;20036;-85
2020/12/29 04:34:13;;;;;;;2.80;1.00;;;;;;;;;;5062589;28;20032;-83
2020/12/29 04:36:39;;;;;;;2.63;0.90;;;;;;;;;;5088050;28;20028;-84
2020/12/29 04:39:05;;;;;;;2.30;1.00;;;;;;;;;;5075480;28;20016;-81
2020/12/29 04:41:31;;;;;;;3.67;0.85;;;;;;;;;;5074688;28;20066;-88
2020/12/29 04:43:58;;;;;;;3.53;1.10;;;;;;;;;;5073851;28;20025;-85
2020/12/29 04:46:24;;;;;;;2.20;0.75;;;;;;;;;;5080602;28;20142;-88
2020/12/29 04:48:50;;;;;;;2.33;0.82;;;;;;;;;;5092401;28;20028;-89
2020/12/29 04:51:16;;;;;;;2.70;1.00;;;;;;;;;;5090324;28;20022;-87
2020/12/29 04:53:57;;;;;;;3.78;0.88;;;;;;;;;;5094362;28;20020;-82
2020/12/29 04:56:25;;;;;;;3.20;1.00;;;;;;;;;;5085103;28;20067;-81
2020/12/29 04:58:52;;;;;;;2.03;1.00;;;;;;;;;;5080227;28;20032;-87
2020/12/29 05:01:22;;;;;;;2.67;0.90;;;;;;;;;;5092769;28;20432;-82
2020/12/29 05:03:49;;;;;;;2.13;0.80;;;;;;;;;;5088121;28;20526;-83
2020/12/29 05:06:16;;;;;;;3.17;1.10;;;;;;;;;;5089607;28;20020;-87
2020/12/29 05:08:46;;;;;;;2.88;0.95;;;;;;;;;;5085679;28;20463;-86
2020/12/29 05:11:12;;;;;;;1.60;0.80;;;;;;;;;;5092334;28;20024;-82
2020/12/29 05:13:38;;;;;;;2.63;1.00;;;;;;;;;;5081615;28;20478;-87
2020/12/29 05:16:04;;;;;;;1.45;0.70;;;;;;;;;;5087235;28;20024;-82
2020/12/29 05:18:30;;;;;;;2.33;0.88;;;;;;;;;;5067131;28;20055;-87
2020/12/29 05:20:57;;;;;;;2.83;0.90;;;;;;;;;;5092029;28;20082;-81
2020/12/29 05:23:23;;;;;;;2.67;1.00;;;;;;;;;;5074019;28;20062;-83
2020/12/29 05:25:50;;;;;;;2.75;1.00;;;;;;;;;;5090883;28;20024;-88
2020/12/29 05:28:16;;;;;;;2.13;0.85;;;;;;;;;;5068087;28;20498;-84
2020/12/29 05:30:42;;;;;;;1.83;0.80;;;;;;;;;;5068491;28;20028;-82
2020/12/29 05:33:14;;;;;;;2.13;0.80;;;;;;;;;;5078274;28;20078;-82
2020/12/29 05:35:40;;;;;;;1.88;0.98;;;;;;;;;;5091304;28;20478;-87
2020/12/29 05:38:11;;;;;;;2.15;0.88;;;;;;;;;;5078876;28;20408;-83
2020/12/29 05:40:37;;;;;;;2.40;1.05;;;;;;;;;;5086443;28;20032;-83
2020/12/29 05:43:03;;;;;;;3.15;1.10;;;;;;;;;;5084332;28;20020;-84
2020/12/29 05:45:37;;;;;;;2.10;0.90;;;;;;;;;;5066493;28;20115;-84
2020/12/29 05:48:03;;;;;;;1.80;0.85;;;;;;;;;;5086421;28;20490;-86
2020/12/29 05:50:30;;;;;;;2.13;0.77;;;;;;;;;;5088872;28;20429;-86
2020/12/29 05:52:56;;;;;;;2.08;0.80;;;;;;;;;;5063248;28;20056;-86
2020/12/29 05:55:22;;;;;;;5.75;0.77;;;;;;;;;;5071397;28;20045;-83
2020/12/29 05:58:01;;;;;;;1.95;0.88;;;;;;;;;;5063881;28;20127;-87
2020/12/29 06:00:27;;;;;;;2.20;1.00;;;;;;;;;;5084357;28;20063;-88
2020/12/29 06:02:57;;;;;;;2.10;0.90;;;;;;;;;;5073554;28;20083;-83
2020/12/29 06:05:24;;;;;;;1.20;0.70;;;;;;;;;;5068371;28;20028;-81
2020/12/29 06:07:54;;;;;;;2.65;0.90;;;;;;;;;;5089567;28;20483;-86
2020/12/29 06:10:20;;;;;;;1.80;0.70;;;;;;;;;;5078399;28;20173;-88
2020/12/29 06:12:49;;;;;;;2.05;0.90;;;;;;;;;;5072795;28;20060;-85
2020/12/29 06:15:21;;;;;;;2.13;0.90;;;;;;;;;;5072879;28;20098;-82
2020/12/29 06:17:53;;;;;;;2.75;1.00;;;;;;;;;;5087261;28;20111;-88
2020/12/29 06:20:19;;;;;;;2.00;0.87;;;;;;;;;;5082274;28;20036;-80
2020/12/29 06:22:45;;;;;;;2.08;1.00;;;;;;;;;;5081782;28;20282;-81
2020/12/29 06:25:16;;;;;;;2.88;1.00;;;;;;;;;;5081825;28;20483;-81
2020/12/29 06:27:46;;;;;;;2.17;0.98;;;;;;;;;;5060253;28;20024;-84
2020/12/29 06:30:12;;;;;;;4.05;0.80;;;;;;;;;;5087753;28;20028;-86
2020/12/29 06:32:43;;;;;;;1.85;0.85;;;;;;;;;;5088296;28;20048;-82
2020/12/29 06:35:09;;;;;;;2.35;0.90;;;;;;;;;;5080879;28;20023;-81
2020/12/29 06:37:53;;;;;;;2.22;0.85;;;;;;;;;;5086697;28;20028;-81
2020/12/29 06:40:21;;;;;;;2.05;0.75;;;;;;;;;;5081716;28;20062;-88
2020/12/29 06:42:47;;;;;;;1.95;0.82;;;;;;;;;;5064624;28;20025;-87
2020/12/29 06:45:13;;;;;;;3.15;1.05;;;;;;;;;;5069442;28;20020;-85
2020/12/29 06:47:43;;;;;;;6.50;0.80;;;;;;;;;;5086624;28;20031;-86
2020/12/29 06:50:22;;;;;;;1.27;0.70;;;;;;;;;;5078668;28;20017;-88
2020/12/29 06:52:55;;;;;;;2.45;1.00;;;;;;;;;;5089535;28;20027;-81
2020/12/29 06:55:21;;;;;;;1.67;0.70;;;;;;;;;;5089371;28;20067;-81
2020/12/29 06:57:48;;;;;;;2.40;1.00;;;;;;;;;;5088507;28;20028;-87
2020/12/29 07:00:14;;;;;;;1.95;0.82;;;;;;;;;;5065110;28;20388;-88
2020/12/29 07:02:41;;;;;;;1.85;0.73;;;;;;;;;;5075606;28;20032;-87
2020/12/29 07:05:14;;;;;;;2.72;0.88;;;;;;;;;;5092363;28;20098;-89
2020/12/29 07:07:56;;;;;;;2.47;0.98;;;;;;;;;;5067130;28;20028;-88
2020/12/29 07:10:26;;;;;;;1.85;0.70;;;;;;;;;;5080486;28;20039;-83
2020/12/29 07:12:52;;;;;;;2.25;0.90;;;;;;;;;;5077147;28;20024;-80
2020/12/29 07:15:24;;;;;;;3.83;1.00;;;;;;;;;;5086885;28;20035;-86
2020/12/29 07:17:54;;;;;;;2.30;0.77;;;;;;;;;;5087627;28;20032;-84
2020/12/29 07:20:21;;;;;;;2.60;1.00;;;;;;;;;;5070868;28;20502;-88
2020/12/29 07:22:58;;;;;;;1.83;0.90;;;;;;;;;;5088050;28;20040;-81
2020/12/29 07:25:24;;;;;;;2.90;1.17;;;;;;;;;;5086298;28;20386;-84
2020/12/29 07:27:53;;;;;;;1.88;0.80;;;;;;;;;;5085117;28;20491;-84
2020/12/29 07:30:19;;;;;;;3.25;1.10;;;;;;;;;;5084657;28;20499;-82
2020/12/29 07:32:45;;;;;;;3.85;0.90;;;;;;;;;;5090907;28;20384;-85
2020/12/29 07:35:12;;;;;;;7.72;1.40;;;;;;;;;;5074347;28;20077;-81
2020/12/29 07:37:40;;;;;;;3.25;1.30;;;;;;;;;;5092250;28;20024;-83
2020/12/29 07:40:07;;;;;;;5.63;1.00;;;;;;;;;;5074485;28;20107;-82
2020/12/29 07:42:34;;;;;;;2.83;1.10;;;;;;;;;;5092550;28;20375;-85
2020/12/29 07:45:00;;;;;;;3.40;1.33;;;;;;;;;;5075898;28;20486;-87
2020/12/29 07:47:26;;;;;;;4.07;1.38;;;;;;;;;;5086438;28;20032;-87
2020/12/29 07:49:52;;;;;;;2.50;1.10;;;;;;;;;;5075505;28;20016;-84
2020/12/29 07:52:22;;;;;;;4.57;1.17;;;;;;;;;;5088568;28;20035;-84
2020/12/29 07:54:48;;;;;;;2.65;1.02;;;;;;;;;;5091466;28;20110;-82
2020/12/29 07:57:14;;;;;;;3.10;1.30;;;;;;;;;;5094844;28;20027;-86
2020/12/29 07:59:40;;;;;;;3.20;1.50;;;;;;;;;;5090572;28;20023;-86
2020/12/29 08:02:08;;;;;;;3.90;1.40;;;;;;;;;;5073573;28;20089;-80
2020/12/29 08:04:34;;;;;;;3.20;1.30;;;;;;;;;;5092051;28;20020;-78
2020/12/29 08:07:11;;;;;;;4.25;1.40;;;;;;;;;;5084619;28;20024;-84
2020/12/29 08:09:47;;;;;;;4.82;1.30;;;;;;;;;;5089202;28;20031;-80
2020/12/29 08:12:17;;;;;;;3.15;1.38;;;;;;;;;;5074279;28;20044;-80
2020/12/29 08:14:43;;;;;;;3.53;1.40;;;;;;;;;;5083649;28;20025;-84
2020/12/29 08:17:09;;;;;;;4.47;1.67;;;;;;;;;;5088205;28;20479;-74
2020/12/29 08:19:35;;;;;;;7.03;1.63;;;;;;;;;;5094040;28;20086;-75
2020/12/29 08:22:08;;;;;;;4.28;1.60;;;;;;;;;;5094527;28;20073;-76
2020/12/29 08:24:35;;;;;;;6.75;1.45;;;;;;;;;;5089939;28;20099;-76
2020/12/29 08:27:01;;;;;;;6.05;1.60;;;;;;;;;;5090029;28;20352;-81
2020/12/29 08:29:27;;;;;;;3.80;1.80;;;;;;;;;;5081393;28;20028;-76
2020/12/29 08:32:09;;;;;;;5.00;1.60;;;;;;;;;;5086580;28;20036;-72
2020/12/29 08:34:37;;;;;;;5.22;1.92;;;;;;;;;;5086051;28;20025;-80
2020/12/29 08:37:04;;;;;;;6.38;1.92;;;;;;;;;;5091955;28;20016;-79
2020/12/29 08:39:48;;;;;;;3.65;1.73;;;;;;;;;;5085005;28;20525;-74
2020/12/29 08:42:17;;;;;;;4.72;1.92;;;;;;;;;;5094445;28;20054;-78
2020/12/29 08:44:44;;;;;;;3.53;1.80;;;;;;;;;;5084645;28;20467;-71
2020/12/29 08:47:14;;;;;;;6.93;1.70;;;;;;;;;;5088056;28;20028;-77
2020/12/29 08:49:40;;;;;;;5.13;2.00;;;;;;;;;;5088760;28;20075;-72
2020/12/29 08:52:06;;;;;;;3.80;1.70;;;;;;;;;;5067863;28;20043;-73
2020/12/29 08:54:36;;;;;;;5.10;1.42;;;;;;;;;;5087065;28;20028;-79
2020/12/29 08:57:05;;;;;;;6.35;1.65;;;;;;;;;;5085731;28;20027;-82
2020/12/29 08:59:35;;;;;;;4.18;1.75;;;;;;;;;;5086215;28;20471;-71
2020/12/29 09:02:01;;;;;;;4.88;1.92;;;;;;;;;;5085083;28;20037;-80
2020/12/29 09:04:28;;;;;;;3.83;1.80;;;;;;;;;;5092327;28;20035;-81
2020/12/29 09:07:01;;;;;;;5.60;2.00;;;;;;;;;;5088891;28;20028;-74
2020/12/29 09:09:28;;;;;;;6.05;2.00;;;;;;;;;;5088881;28;20016;-81
2020/12/29 09:12:20;;;;;;;4.03;1.90;;;;;;;;;;5082450;28;20031;-72
2020/12/29 09:15:00;;;;;;;5.60;2.45;;;;;;;;;;5060023;28;20056;-78
2020/12/29 09:17:30;;;;;;;4.60;1.88;;;;;;;;;;5076514;28;20021;-80
2020/12/29 09:20:14;;;;;;;5.63;1.83;;;;;;;;;;5074439;28;20035;-76
2020/12/29 09:22:48;;;;;;;5.43;1.77;;;;;;;;;;5067388;28;20396;-80
2020/12/29 09:25:24;;;;;;;7.75;2.28;;;;;;;;;;5093876;28;20490;-74
2020/12/29 09:27:50;;;;;;;4.50;1.75;;;;;;;;;;5089294;28;20020;-75
2020/12/29 09:30:16;;;;;;;5.85;2.00;;;;;;;;;;5091790;28;20126;-79
2020/12/29 09:32:43;;;;;;;3.33;1.80;;;;;;;;;;5073372;28;20040;-75
2020/12/29 09:35:28;;;;;;;5.80;1.90;;;;;;;;;;5078278;28;20021;-75
2020/12/29 09:37:55;;;;;;;4.78;1.85;;;;;;;;;;5054250;28;20036;-74
2020/12/29 09:40:21;;;;;;;4.20;1.95;;;;;;;;;;5066350;28;20029;-78
2020/12/29 09:42:48;;;;;;;3.70;1.55;;;;;;;;;;5041823;28;20541;-75
2020/12/29 09:45:17;;;;;;;4.07;1.67;;;;;;;;;;5052918;28;20017;-78
2020/12/29 09:47:43;;;;;;;4.90;1.88;;;;;;;;;;5066503;28;21466;-74
2020/12/29 09:50:09;;;;;;;4.47;1.70;;;;;;;;;;5063671;28;20017;-78
2020/12/29 09:52:35;;;;;;;3.78;1.60;;;;;;;;;;5037779;28;20029;-78
2020/12/29 09:55:02;;;;;;;4.00;1.77;;;;;;;;;;5072724;28;20058;-74
2020/12/29 09:57:28;;;;;;;3.05;1.40;;;;;;;;;;5070739;28;20026;-75
2020/12/29 09:59:54;;;;;;;4.15;1.35;;;;;;;;;;5051340;28;20029;-75
2020/12/29 10:02:21;;;;;;;6.65;1.85;;;;;;;;;;5071422;28;20549;-75
2020/12/29 10:04:47;;;;;;;5.78;1.90;;;;;;;;;;5069932;28;20017;-78
2020/12/29 10:07:13;;;;;;;7.82;1.70;;;;;;;;;;5051498;28;20020;-74
2020/12/29 10:09:39;;;;;;;3.83;1.75;;;;;;;;;;5057920;28;20032;-76
2020/12/29 10:12:05;;;;;;;6.05;1.80;;;;;;;;;;5072056;28;20028;-75
2020/12/29 10:14:31;;;;;;;5.55;1.70;;;;;;;;;;5073347;28;20070;-74
2020/12/29 10:16:57;;;;;;;4.93;1.65;;;;;;;;;;5055212;28;20029;-75
2020/12/29 10:19:23;;;;;;;3.95;1.33;;;;;;;;;;5055031;28;20031;-74
2020/12/29 10:21:53;;;;;;;8.82;1.88;;;;;;;;;;5054982;28;20044;-74
2020/12/29 10:24:19;;;;;;;4.65;1.60;;;;;;;;;;5053432;28;20480;-74
2020/12/29 10:26:48;;;;;;;4.75;1.77;;;;;;;;;;5053599;28;20033;-74
2020/12/29 10:29:14;;;;;;;7.38;1.90;;;;;;;;;;5053263;28;20483;-74
2020/12/29 10:31:40;;;;;;;7.28;2.30;;;;;;;;;;5035156;28;20431;-74
2020/12/29 10:34:06;;;;;;;5.25;1.77;;;;;;;;;;5066057;28;20361;-73
2020/12/29 10:36:34;;;;;;;6.38;1.63;;;;;;;;;;5073331;28;20047;-76
2020/12/29 10:39:00;;;;;;;11.55;2.20;;;;;;;;;;5072718;28;20031;-76
2020/12/29 10:41:29;;;;;;;9.18;1.80;;;;;;;;;;5092074;28;20032;-76
2020/12/29 10:43:56;;;;;;;5.70;1.70;;;;;;;;;;5066890;28;20016;-76
2020/12/29 10:46:22;;;;;;;5.63;1.60;;;;;;;;;;5081276;28;20028;-76
2020/12/29 10:48:48;;;;;;;7.63;1.80;;;;;;;;;;5074309;28;20371;-77
2020/12/29 10:51:18;;;;;;;9.40;1.80;;;;;;;;;;5079312;28;20030;-77
2020/12/29 10:53:44;;;;;;;5.68;1.90;;;;;;;;;;5068109;28;20052;-77
2020/12/29 10:56:10;;;;;;;16.40;1.80;;;;;;;;;;5070041;28;20028;-77
2020/12/29 10:58:43;;;;;;;6.10;1.90;;;;;;;;;;5090335;28;20020;-76
2020/12/29 11:01:09;;;;;;;;;;;;;;;;;;5061352;28;20039;-80
2020/12/29 11:03:35;;;;;;;9.27;2.17;;;;;;;;;;5088451;28;19912;-75
2020/12/29 11:06:01;;;;;;;14.18;1.67;;;;;;;;;;5064638;28;20051;-68
2020/12/29 11:08:27;;;;;;;4.20;1.75;;;;;;;;;;5087066;28;20352;-69
2020/12/29 11:10:54;;;;;;;10.38;2.28;;;;;;;;;;5082305;28;20073;-69
2020/12/29 11:13:20;;;;;;;9.88;2.30;;;;;;;;;;5076552;28;20027;-70
2020/12/29 11:15:51;;;;;;;9.20;2.25;;;;;;;;;;5076321;28;20025;-69
2020/12/29 11:18:18;;;;;;;9.32;2.28;;;;;;;;;;5076088;28;20016;-73
2020/12/29 11:20:44;;;;;;;6.30;2.00;;;;;;;;;;5073625;28;20066;-70
2020/12/29 11:23:10;;;;;;;10.38;2.00;;;;;;;;;;5087699;28;20024;-70
2020/12/29 11:25:37;;;;;;;6.05;1.95;;;;;;;;;;5067437;28;20070;-69
2020/12/29 11:28:03;;;;;;;9.77;2.28;;;;;;;;;;5091166;28;20031;-70
2020/12/29 11:30:29;;;;;;;7.05;2.40;;;;;;;;;;5080525;28;20020;-71
2020/12/29 11:32:55;;;;;;;6.55;1.95;;;;;;;;;;5092106;28;20491;-71
2020/12/29 11:35:21;;;;;;;5.68;2.05;;;;;;;;;;5066583;28;20505;-70
2020/12/29 11:37:47;;;;;;;6.90;2.30;;;;;;;;;;5092058;28;20032;-70
2020/12/29 11:40:13;;;;;;;6.75;2.55;;;;;;;;;;5082342;28;20060;-85
2020/12/29 11:42:39;;;;;;;6.35;2.20;;;;;;;;;;5087393;28;20392;-79
2020/12/29 11:45:08;;;;;;;11.93;1.83;;;;;;;;;;5066949;28;20462;-85
2020/12/29 11:47:34;;;;;;;8.05;2.10;;;;;;;;;;5069958;28;20040;-81
2020/12/29 11:50:00;;;;;;;10.43;2.40;;;;;;;;;;5083460;28;20542;-78
2020/12/29 11:52:26;;;;;;;7.18;2.33;;;;;;;;;;5066450;28;20360;-79
2020/12/29 11:54:52;;;;;;;8.02;2.25;;;;;;;;;;5078402;28;20078;-80
2020/12/29 11:57:18;;;;;;;6.28;1.83;;;;;;;;;;5068480;28;20021;-78
2020/12/29 11:59:45;;;;;;;5.93;1.70;;;;;;;;;;5087617;28;20024;-81
2020/12/29 12:02:11;;;;;;;13.93;2.47;;;;;;;;;;5087128;28;20043;-72
2020/12/29 12:04:37;;;;;;;14.98;2.20;;;;;;;;;;5091295;28;20063;-71
2020/12/29 12:07:05;;;;;;;12.32;2.00;;;;;;;;;;5086453;28;20040;-72
2020/12/29 12:09:32;;;;;;;9.60;2.45;;;;;;;;;;5052856;28;20120;-72
2020/12/29 12:11:58;;;;;;;8.52;1.70;;;;;;;;;;5052743;28;20012;-71
2020/12/29 12:14:24;;;;;;;11.43;2.05;;;;;;;;;;5055481;28;20483;-72
2020/12/29 12:16:50;;;;;;;10.15;2.00;;;;;;;;;;5057686;28;20078;-70
2020/12/29 12:19:16;;;;;;;8.93;1.98;;;;;;;;;;5075468;28;20029;-76
2020/12/29 12:21:42;;;;;;;11.40;2.00;;;;;;;;;;5057496;28;20032;-76
2020/12/29 12:24:09;;;;;;;10.23;1.90;;;;;;;;;;5075827;28;20092;-75
2020/12/29 12:26:35;;;;;;;7.68;2.05;;;;;;;;;;5075495;28;20021;-74
2020/12/29 12:29:01;;;;;;;7.32;2.00;;;;;;;;;;5075529;28;20072;-74
2020/12/29 12:31:27;;;;;;;38.97;24.70;;;;;;;;;;5086250;28;20032;-77
2020/12/29 12:33:53;;;;;;;58.67;39.78;;;;;;;;;;5095368;28;20039;-78
2020/12/29 12:36:19;;;;;;;270.90;211.20;;;;;;;;;;5075562;28;20115;-70
2020/12/29 12:38:45;;;;;;;170.73;131.35;;;;;;;;;;5075318;28;20012;-72
2020/12/29 12:41:12;;;;;;;192.90;152.45;;;;;;;;;;5075649;28;20031;-71
2020/12/29 12:43:38;;;;;;;261.88;218.68;;;;;;;;;;5075115;28;20052;-74
2020/12/29 12:46:04;;;;;;;276.00;229.23;;;;;;;;;;5057090;28;20074;-76
2020/12/29 12:48:30;;;;;;;195.40;154.20;;;;;;;;;;5078257;28;20472;-74
2020/12/29 12:50:57;;;;;;;205.55;155.65;;;;;;;;;;5073591;28;20028;-72
2020/12/29 12:53:23;;;;;;;226.05;173.05;;;;;;;;;;5055516;28;20029;-70
2020/12/29 12:55:49;;;;;;;238.32;182.00;;;;;;;;;;5079781;28;20134;-76
2020/12/29 12:58:15;;;;;;;256.00;193.15;;;;;;;;;;5069445;28;20763;-75
2020/12/29 13:00:41;;;;;;;184.77;139.55;;;;;;;;;;5076736;28;20047;-73
2020/12/29 13:03:07;;;;;;;177.82;135.40;;;;;;;;;;5085610;28;20029;-74
2020/12/29 13:05:33;;;;;;;188.75;143.32;;;;;;;;;;5075809;28;20031;-75
2020/12/29 13:07:59;;;;;;;103.95;74.50;;;;;;;;;;5096475;28;20023;-75
2020/12/29 13:10:26;;;;;;;155.57;118.55;;;;;;;;;;5099349;28;20012;-74
2020/12/29 13:12:52;;;;;;;134.35;104.45;;;;;;;;;;5093794;28;20055;-70
2020/12/29 13:15:18;;;;;;;163.07;118.65;;;;;;;;;;5107011;28;20532;-70
2020/12/29 13:17:45;;;;;;;145.38;116.32;;;;;;;;;;5103385;28;20020;-68
2020/12/29 13:20:11;;;;;;;130.48;96.97;;;;;;;;;;5108743;28;20100;-69
2020/12/29 13:22:37;;;;;;;132.27;103.50;;;;;;;;;;5095197;28;20035;-71
2020/12/29 13:25:07;;;;;;;130.82;99.70;;;;;;;;;;5111654;27;20047;-71
2020/12/29 13:27:33;;;;;;;137.02;103.40;;;;;;;;;;5094485;28;20052;-71
2020/12/29 13:29:59;;;;;;;121.90;92.28;;;;;;;;;;5094289;28;20024;-71
2020/12/29 13:32:26;;;;;;;112.05;82.32;;;;;;;;;;5094920;28;20027;-71
2020/12/29 13:34:52;;;;;;;111.65;82.03;;;;;;;;;;5076206;28;20035;-71
2020/12/29 13:37:21;;;;;;;93.90;66.20;;;;;;;;;;5094451;28;20082;-71
2020/12/29 13:39:47;;;;;;;95.88;70.40;;;;;;;;;;5094316;28;20356;-71
2020/12/29 13:42:13;;;;;;;84.07;59.90;;;;;;;;;;5094069;28;20055;-71
2020/12/29 13:44:39;;;;;;;89.18;63.85;;;;;;;;;;5076062;28;20032;-71
2020/12/29 13:47:05;;;;;;;94.95;68.35;;;;;;;;;;5094148;28;20077;-71
2020/12/29 13:49:32;;;;;;;86.55;60.38;;;;;;;;;;5094685;28;20017;-71
2020/12/29 13:51:58;;;;;;;81.38;61.67;;;;;;;;;;5099618;28;20095;-71
2020/12/29 13:54:24;;;;;;;78.80;56.58;;;;;;;;;;5093391;28;20084;-71
2020/12/29 13:56:59;;;;;;;87.95;62.00;;;;;;;;;;5092605;28;20034;-73
2020/12/29 13:59:26;;;;;;;87.60;58.70;;;;;;;;;;5109526;28;20064;-69
2020/12/29 14:01:52;;;;;;;61.95;40.70;;;;;;;;;;5098723;28;20096;-70
2020/12/29 14:04:18;;;;;;;61.10;44.80;;;;;;;;;;5104192;27;20029;-70
2020/12/29 14:06:48;;;;;;;58.53;39.30;;;;;;;;;;5122198;27;20425;-69
2020/12/29 14:09:15;;;;;;;64.50;44.95;;;;;;;;;;5112299;28;20100;-71
2020/12/29 14:11:45;;;;;;;63.10;45.58;;;;;;;;;;5111687;28;20023;-74
2020/12/29 14:14:11;;;;;;;67.60;44.92;;;;;;;;;;5088753;28;20023;-73
2020/12/29 14:16:37;;;;;;;66.53;45.72;;;;;;;;;;5094355;28;20062;-73
2020/12/29 14:19:03;;;;;;;61.28;41.00;;;;;;;;;;5112624;28;20020;-75
2020/12/29 14:21:29;;;;;;;58.40;40.35;;;;;;;;;;5112478;28;20032;-73
2020/12/29 14:23:57;;;;;;;66.57;40.20;;;;;;;;;;5104438;28;20040;-71
2020/12/29 14:26:23;;;;;;;58.10;35.95;;;;;;;;;;5092150;28;20024;-75
2020/12/29 14:28:50;;;;;;;62.70;40.17;;;;;;;;;;5092206;28;20051;-71
2020/12/29 14:31:16;;;;;;;58.72;36.70;;;;;;;;;;5091846;28;20066;-73
2020/12/29 14:33:42;;;;;;;55.53;32.10;;;;;;;;;;5091605;28;20127;-74
2020/12/29 14:36:08;;;;;;;53.92;33.53;;;;;;;;;;5091477;28;20085;-75
2020/12/29 14:38:36;;;;;;;52.80;32.53;;;;;;;;;;5073155;28;20107;-80
2020/12/29 14:41:03;;;;;;;53.63;32.63;;;;;;;;;;5094987;27;20437;-75
2020/12/29 14:43:29;;;;;;;54.58;27.55;;;;;;;;;;5119650;27;20097;-76
2020/12/29 14:45:55;;;;;;;35.53;22.60;;;;;;;;;;5107069;28;20022;-80
2020/12/29 14:48:21;;;;;;;39.75;24.40;;;;;;;;;;5101592;27;20020;-79
2020/12/29 14:50:47;;;;;;;37.78;23.67;;;;;;;;;;5103948;27;20028;-72
2020/12/29 14:53:14;;;;;;;34.67;23.70;;;;;;;;;;5107610;28;20019;-72
2020/12/29 14:55:40;;;;;;;38.63;23.00;;;;;;;;;;5089848;28;20020;-74
2020/12/29 14:58:06;;;;;;;28.58;18.25;;;;;;;;;;5102494;28;20024;-75
2020/12/29 15:00:33;;;;;;;28.95;19.13;;;;;;;;;;5102237;27;20024;-84
2020/12/29 15:03:00;;;;;;;39.47;17.83;;;;;;;;;;5114438;28;20028;-76
2020/12/29 15:05:26;;;;;;;29.35;15.88;;;;;;;;;;5089054;28;20005;-76
2020/12/29 15:07:52;;;;;;;39.97;16.02;;;;;;;;;;5088475;28;20471;-77
2020/12/29 15:10:18;;;;;;;26.50;13.63;;;;;;;;;;5089351;28;20095;-75
2020/12/29 15:12:44;;;;;;;19.38;11.90;;;;;;;;;;5110277;28;20101;-81
2020/12/29 15:15:10;;;;;;;17.52;10.15;;;;;;;;;;5080611;28;20044;-83
2020/12/29 15:17:36;;;;;;;20.27;10.93;;;;;;;;;;5101386;28;20039;-72